createdAt,value
2019-05-07T00:02:40.054Z,6.28
2019-05-07T00:04:42.939Z,6.03
2019-05-07T00:06:45.526Z,6.50
2019-05-07T00:10:52.812Z,6.40
2019-05-07T00:12:54.567Z,6.65
2019-05-07T00:15:02.267Z,6.50
2019-05-07T00:17:04.614Z,6.33
2019-05-07T00:19:07.031Z,5.97
2019-05-07T00:21:09.062Z,6.00
2019-05-07T00:23:12.417Z,6.33
2019-05-07T00:25:14.605Z,6.15
2019-05-07T00:27:16.728Z,6.03
2019-05-07T00:29:19.258Z,6.22
2019-05-07T00:33:39.222Z,6.25
2019-05-07T00:36:05.303Z,6.30
2019-05-07T00:38:09.738Z,6.33
2019-05-07T00:40:37.461Z,6.35
2019-05-07T00:42:57.847Z,8.38
2019-05-07T00:45:17.907Z,11.48
2019-05-07T00:47:14.799Z,9.50
2019-05-07T00:49:17.761Z,7.62
2019-05-07T00:51:29.279Z,6.80
2019-05-07T00:53:32.919Z,6.55
2019-05-07T00:55:35.520Z,6.60
2019-05-07T00:59:40.417Z,6.42
2019-05-07T01:01:44.505Z,6.70
2019-05-07T01:03:46.582Z,6.45
2019-05-07T01:05:49.041Z,6.50
2019-05-07T01:09:54.803Z,5.75
2019-05-07T01:11:56.835Z,6.60
2019-05-07T01:13:59.331Z,6.08
2019-05-07T01:16:02.500Z,6.55
2019-05-07T01:18:05.730Z,6.28
2019-05-07T01:20:08.391Z,7.25
2019-05-07T01:24:14.440Z,6.72
2019-05-07T01:28:18.304Z,6.72
2019-05-07T01:30:20.342Z,7.58
2019-05-07T01:32:45.238Z,7.40
2019-05-07T01:34:52.847Z,7.85
2019-05-07T01:36:57.866Z,7.67
2019-05-07T01:39:00.020Z,7.75
2019-05-07T01:41:02.851Z,8.08
2019-05-07T01:43:05.180Z,7.58
2019-05-07T01:45:09.174Z,7.17
2019-05-07T01:47:13.020Z,7.15
2019-05-07T01:49:15.258Z,7.97
2019-05-07T01:53:22.737Z,7.25
2019-05-07T01:55:24.881Z,6.85
2019-05-07T01:57:27.684Z,7.10
2019-05-07T01:59:31.974Z,6.58
2019-05-07T02:01:35.913Z,7.75
2019-05-07T02:03:57.838Z,7.53
2019-05-07T02:06:09.505Z,7.08
2019-05-07T02:08:16.123Z,7.50
2019-05-07T02:10:38.133Z,7.20
2019-05-07T02:12:42.415Z,8.30
2019-05-07T02:14:44.449Z,8.60
2019-05-07T02:16:48.101Z,8.10
2019-05-07T02:18:50.190Z,8.60
2019-05-07T02:20:52.404Z,8.85
2019-05-07T02:22:54.700Z,8.70
2019-05-07T02:24:56.761Z,8.70
2019-05-07T02:26:58.758Z,8.73
2019-05-07T02:29:02.711Z,8.58
2019-05-07T02:31:06.168Z,9.63
2019-05-07T02:33:08.318Z,9.83
2019-05-07T02:35:13.488Z,9.35
2019-05-07T02:37:18.781Z,9.23
2019-05-07T02:39:27.719Z,9.53
2019-05-07T02:41:33.350Z,8.95
2019-05-07T02:43:36.313Z,9.10
2019-05-07T02:46:15.226Z,9.43
2019-05-07T02:48:03.448Z,9.90
2019-05-07T02:50:14.053Z,8.83
2019-05-07T02:52:38.754Z,8.75
2019-05-07T02:55:03.995Z,8.90
2019-05-07T02:57:05.958Z,9.10
2019-05-07T02:59:08.143Z,8.95
2019-05-07T03:01:13.425Z,9.63
2019-05-07T03:03:14.354Z,9.08
2019-05-07T03:05:16.573Z,9.08
2019-05-07T03:07:19.062Z,9.08
2019-05-07T03:11:24.634Z,8.25
2019-05-07T03:13:26.921Z,8.65
2019-05-07T03:15:33.179Z,8.60
2019-05-07T03:17:34.436Z,8.23
2019-05-07T03:19:38.619Z,8.23
2019-05-07T03:21:54.014Z,8.63
2019-05-07T03:24:30.056Z,7.33
2019-05-07T03:26:38.534Z,7.15
2019-05-07T03:28:53.637Z,7.65
2019-05-07T03:31:06.562Z,6.70
2019-05-07T03:33:27.976Z,6.97
2019-05-07T03:35:46.236Z,7.25
2019-05-07T03:37:45.707Z,7.92
2019-05-07T03:39:47.795Z,7.67
2019-05-07T03:41:49.815Z,7.42
2019-05-07T03:43:52.888Z,7.58
2019-05-07T03:46:14.173Z,8.28
2019-05-07T03:48:18.289Z,7.55
2019-05-07T03:50:23.334Z,7.55
2019-05-07T03:52:25.326Z,8.28
2019-05-07T03:54:27.327Z,7.03
2019-05-07T03:56:32.896Z,6.75
2019-05-07T03:58:34.450Z,7.33
2019-05-07T04:00:36.498Z,7.00
2019-05-07T04:02:39.405Z,6.95
2019-05-07T04:04:43.317Z,6.85
2019-05-07T04:06:45.670Z,7.35
2019-05-07T04:08:47.916Z,6.83
2019-05-07T04:12:54.180Z,6.05
2019-05-07T04:14:56.227Z,6.90
2019-05-07T04:17:13.277Z,7.95
2019-05-07T04:19:03.918Z,7.62
2019-05-07T04:21:06.157Z,7.37
2019-05-07T04:23:08.363Z,7.00
2019-05-07T04:25:35.853Z,7.05
2019-05-07T04:27:47.959Z,6.92
2019-05-07T04:29:53.245Z,7.45
2019-05-07T04:31:54.515Z,7.45
2019-05-07T04:33:59.565Z,7.85
2019-05-07T04:36:24.528Z,7.72
2019-05-07T04:38:26.535Z,9.30
2019-05-07T04:40:28.705Z,9.88
2019-05-07T04:42:33.332Z,7.75
2019-05-07T04:44:34.953Z,8.28
2019-05-07T04:46:37.010Z,8.78
2019-05-07T04:48:39.357Z,8.08
2019-05-07T04:52:46.451Z,8.65
2019-05-07T04:54:48.615Z,8.65
2019-05-07T04:56:53.191Z,9.08
2019-05-07T04:58:54.737Z,9.25
2019-05-07T05:00:57.016Z,9.10
2019-05-07T05:03:09.278Z,8.73
2019-05-07T05:05:12.939Z,8.08
2019-05-07T05:07:15.215Z,8.68
2019-05-07T05:09:17.427Z,8.43
2019-05-07T05:11:20.343Z,8.35
2019-05-07T05:13:23.735Z,9.15
2019-05-07T05:15:26.022Z,9.00
2019-05-07T05:17:28.043Z,8.75
2019-05-07T05:19:32.289Z,9.80
2019-05-07T05:21:57.114Z,10.30
2019-05-07T05:24:02.827Z,9.33
2019-05-07T05:26:05.008Z,9.43
2019-05-07T05:28:07.333Z,10.72
2019-05-07T05:32:14.779Z,10.23
2019-05-07T05:34:16.791Z,10.85
2019-05-07T05:36:18.811Z,9.48
2019-05-07T05:38:22.144Z,10.72
2019-05-07T05:40:24.471Z,10.53
2019-05-07T05:42:34.137Z,11.12
2019-05-07T05:44:36.486Z,11.03
2019-05-07T05:46:38.476Z,11.55
2019-05-07T05:48:42.539Z,12.15
2019-05-07T05:51:11.900Z,11.78
2019-05-07T05:53:36.757Z,13.15
2019-05-07T05:55:38.992Z,13.00
2019-05-07T05:58:12.122Z,12.33
2019-05-07T06:00:34.351Z,13.13
2019-05-07T06:03:02.525Z,13.15
2019-05-07T06:05:34.547Z,13.83
2019-05-07T06:07:42.739Z,13.20
2019-05-07T06:10:12.711Z,14.78
2019-05-07T06:12:32.753Z,14.20
2019-05-07T06:14:47.923Z,14.40
2019-05-07T06:16:57.612Z,16.00
2019-05-07T06:19:09.266Z,15.85
2019-05-07T06:21:34.002Z,16.15
2019-05-07T06:23:44.523Z,17.00
2019-05-07T06:25:47.049Z,16.25
2019-05-07T06:27:49.127Z,17.05
2019-05-07T06:29:52.430Z,17.87
2019-05-07T06:32:03.506Z,17.05
2019-05-07T06:34:06.743Z,17.62
2019-05-07T06:36:08.770Z,17.48
2019-05-07T06:38:12.575Z,18.37
2019-05-07T06:40:35.496Z,18.10
2019-05-07T06:45:22.848Z,17.67
2019-05-07T06:47:24.953Z,18.37
2019-05-07T06:49:26.955Z,17.32
2019-05-07T06:51:29.258Z,16.62
2019-05-07T06:55:35.393Z,17.45
2019-05-07T06:57:37.683Z,17.37
2019-05-07T06:59:45.224Z,16.55
2019-05-07T07:02:07.069Z,18.07
2019-05-07T07:04:22.347Z,19.20
2019-05-07T07:06:27.127Z,17.82
2019-05-07T07:08:34.116Z,17.90
2019-05-07T07:10:54.881Z,17.80
2019-05-07T07:12:56.899Z,16.57
2019-05-07T07:14:59.270Z,16.20
2019-05-07T07:17:02.337Z,17.20
2019-05-07T07:19:04.385Z,17.30
2019-05-07T07:21:06.450Z,16.42
2019-05-07T07:23:08.818Z,17.23
2019-05-07T07:25:11.907Z,17.25
2019-05-07T07:27:14.124Z,17.10
2019-05-07T07:29:18.661Z,17.55
2019-05-07T07:31:31.843Z,17.17
2019-05-07T07:33:36.885Z,16.07
2019-05-07T07:35:39.175Z,16.07
2019-05-07T07:37:43.000Z,16.00
2019-05-07T07:39:45.387Z,15.65
2019-05-07T07:41:53.002Z,16.93
2019-05-07T07:43:56.116Z,16.50
2019-05-07T07:45:58.105Z,16.15
2019-05-07T07:48:02.375Z,15.85
2019-05-07T07:50:04.765Z,15.03
2019-05-07T07:52:06.773Z,15.28
2019-05-07T07:54:09.113Z,16.42
2019-05-07T07:56:45.380Z,14.95
2019-05-07T07:58:42.039Z,16.23
2019-05-07T08:00:58.101Z,13.93
2019-05-07T08:03:03.046Z,15.38
2019-05-07T08:05:07.616Z,16.17
2019-05-07T08:07:09.641Z,15.20
2019-05-07T08:09:12.923Z,13.68
2019-05-07T08:11:15.362Z,13.08
2019-05-07T08:13:17.364Z,13.15
2019-05-07T08:15:23.661Z,11.83
2019-05-07T08:17:24.759Z,12.10
2019-05-07T08:19:26.925Z,12.50
2019-05-07T08:21:29.162Z,11.68
2019-05-07T08:23:31.946Z,11.93
2019-05-07T08:25:49.404Z,11.88
2019-05-07T08:27:52.982Z,11.05
2019-05-07T08:29:54.986Z,10.72
2019-05-07T08:32:04.296Z,11.28
2019-05-07T08:34:15.225Z,10.80
2019-05-07T08:36:17.638Z,10.20
2019-05-07T08:40:22.141Z,11.00
2019-05-07T08:42:24.228Z,10.95
2019-05-07T08:44:33.326Z,11.30
2019-05-07T08:46:59.052Z,11.18
2019-05-07T08:49:01.961Z,10.70
2019-05-07T08:51:03.978Z,11.45
2019-05-07T08:53:06.342Z,11.30
2019-05-07T08:55:08.680Z,12.10
2019-05-07T08:57:12.345Z,12.20
2019-05-07T08:59:15.089Z,12.07
2019-05-07T09:01:17.267Z,11.35
2019-05-07T09:03:37.276Z,12.23
2019-05-07T09:05:39.508Z,10.63
2019-05-07T09:07:42.585Z,11.60
2019-05-07T09:09:44.868Z,16.40
2019-05-07T09:11:47.248Z,11.60
2019-05-07T09:13:49.211Z,23.12
2019-05-07T09:15:52.858Z,12.13
2019-05-07T09:17:56.284Z,10.90
2019-05-07T09:19:58.297Z,11.93
2019-05-07T09:22:02.153Z,11.00
2019-05-07T09:24:05.455Z,10.38
2019-05-07T09:26:09.937Z,10.40
2019-05-07T09:28:12.799Z,10.40
2019-05-07T09:30:39.375Z,10.10
2019-05-07T09:32:54.529Z,10.05
2019-05-07T09:34:56.932Z,10.20
2019-05-07T09:37:02.400Z,10.40
2019-05-07T09:39:06.429Z,9.83
2019-05-07T09:41:12.019Z,9.95
2019-05-07T09:43:15.697Z,10.50
2019-05-07T09:47:21.894Z,9.95
2019-05-07T09:49:24.556Z,10.28
2019-05-07T09:53:28.307Z,10.70
2019-05-07T09:55:32.719Z,9.43
2019-05-07T09:57:34.987Z,8.75
2019-05-07T09:59:36.979Z,9.33
2019-05-07T10:01:39.214Z,9.18
2019-05-07T10:03:42.898Z,10.08
2019-05-07T10:05:45.129Z,9.95
2019-05-07T10:07:47.927Z,11.63
2019-05-07T10:09:52.210Z,11.03
2019-05-07T10:12:02.989Z,10.28
2019-05-07T10:14:08.137Z,9.88
2019-05-07T10:16:10.266Z,11.15
2019-05-07T10:18:14.172Z,11.03
2019-05-07T10:20:22.029Z,10.65
2019-05-07T10:22:24.672Z,9.58
2019-05-07T10:24:27.199Z,8.63
2019-05-07T10:26:29.201Z,8.53
2019-05-07T10:28:32.159Z,8.45
2019-05-07T10:30:34.777Z,7.95
2019-05-07T10:34:39.117Z,7.12
2019-05-07T10:36:42.167Z,13.62
2019-05-07T10:38:44.656Z,8.63
2019-05-07T10:40:47.811Z,8.08
2019-05-07T10:42:51.742Z,7.80
2019-05-07T10:45:03.125Z,6.97
2019-05-07T10:47:24.754Z,6.47
2019-05-07T10:49:35.417Z,7.15
2019-05-07T10:51:37.451Z,7.80
2019-05-07T10:53:39.545Z,7.83
2019-05-07T10:55:42.897Z,8.08
2019-05-07T10:57:48.009Z,7.75
2019-05-07T10:59:52.272Z,8.38
2019-05-07T11:02:02.461Z,8.55
2019-05-07T11:04:05.565Z,9.23
2019-05-07T11:06:07.708Z,8.48
2019-05-07T11:08:10.199Z,8.95
2019-05-07T11:10:12.588Z,10.13
2019-05-07T11:12:14.587Z,8.93
2019-05-07T11:14:16.939Z,9.23
2019-05-07T11:16:22.151Z,9.03
2019-05-07T11:18:29.636Z,9.05
2019-05-07T11:20:46.589Z,8.88
2019-05-07T11:22:38.728Z,8.40
2019-05-07T11:24:42.609Z,9.13
2019-05-07T11:26:44.980Z,9.10
2019-05-07T11:28:47.270Z,9.48
2019-05-07T11:30:49.360Z,9.30
2019-05-07T11:32:52.258Z,8.63
2019-05-07T11:34:56.497Z,8.65
2019-05-07T11:36:58.817Z,8.98
2019-05-07T11:39:01.790Z,8.48
2019-05-07T11:41:06.193Z,9.03
2019-05-07T11:43:18.040Z,8.70
2019-05-07T11:45:26.100Z,8.40
2019-05-07T11:47:31.945Z,8.40
2019-05-07T11:49:52.502Z,8.45
2019-05-07T11:52:05.692Z,8.40
2019-05-07T11:54:12.816Z,8.00
2019-05-07T11:56:16.138Z,8.00
2019-05-07T11:58:18.205Z,8.33
2019-05-07T12:00:28.939Z,8.60
2019-05-07T12:02:32.045Z,8.50
2019-05-07T12:04:34.371Z,7.85
2019-05-07T12:06:36.567Z,8.18
2019-05-07T12:08:48.129Z,8.53
2019-05-07T12:10:42.599Z,8.93
2019-05-07T12:12:49.002Z,8.30
2019-05-07T12:14:51.811Z,8.68
2019-05-07T12:16:54.150Z,8.85
2019-05-07T12:18:56.380Z,9.00
2019-05-07T12:20:58.472Z,9.20
2019-05-07T12:23:02.846Z,8.68
2019-05-07T12:25:05.877Z,8.88
2019-05-07T12:27:08.030Z,8.93
2019-05-07T12:29:11.863Z,9.53
2019-05-07T12:31:45.439Z,8.78
2019-05-07T12:34:02.600Z,8.60
2019-05-07T12:36:05.673Z,10.40
2019-05-07T12:38:08.458Z,9.50
2019-05-07T12:40:12.408Z,9.58
2019-05-07T12:42:14.745Z,9.48
2019-05-07T12:44:17.075Z,9.45
2019-05-07T12:46:19.394Z,8.98
2019-05-07T12:48:21.868Z,9.03
2019-05-07T12:52:38.770Z,8.50
2019-05-07T12:55:02.888Z,8.55
2019-05-07T12:57:05.193Z,10.23
2019-05-07T12:59:07.357Z,8.93
2019-05-07T13:01:29.043Z,8.23
2019-05-07T13:03:37.967Z,7.87
2019-05-07T13:05:41.728Z,8.40
2019-05-07T13:07:52.524Z,8.40
2019-05-07T13:09:54.832Z,8.53
2019-05-07T13:11:56.841Z,9.30
2019-05-07T13:13:58.865Z,8.65
2019-05-07T13:16:02.945Z,7.87
2019-05-07T13:18:05.430Z,7.37
2019-05-07T13:20:07.956Z,6.58
2019-05-07T13:22:13.076Z,6.70
2019-05-07T13:24:15.145Z,5.87
2019-05-07T13:26:17.198Z,6.05
2019-05-07T13:28:19.526Z,5.70
2019-05-07T13:30:22.675Z,5.80
2019-05-07T13:32:27.480Z,5.55
2019-05-07T13:34:33.700Z,5.55
2019-05-07T13:36:36.420Z,5.00
2019-05-07T13:38:46.080Z,4.70
2019-05-07T13:41:17.332Z,4.67
2019-05-07T13:43:25.411Z,4.25
2019-05-07T13:45:34.820Z,5.10
2019-05-07T13:47:40.196Z,4.70
2019-05-07T13:49:42.832Z,4.85
2019-05-07T13:51:45.376Z,4.92
2019-05-07T13:53:47.769Z,4.67
2019-05-07T13:55:49.998Z,5.10
2019-05-07T13:57:52.482Z,5.55
2019-05-07T13:59:55.204Z,4.67
2019-05-07T14:04:06.213Z,5.47
2019-05-07T14:06:08.455Z,5.20
2019-05-07T14:08:11.934Z,6.83
2019-05-07T14:10:15.364Z,6.80
2019-05-07T14:12:17.710Z,6.70
2019-05-07T14:14:22.165Z,6.90
2019-05-07T14:16:24.804Z,6.90
2019-05-07T14:20:28.767Z,7.03
2019-05-07T14:22:31.856Z,7.00
2019-05-07T14:24:34.603Z,7.83
2019-05-07T14:28:39.078Z,8.60
2019-05-07T14:30:42.081Z,13.72
2019-05-07T14:32:49.312Z,8.53
2019-05-07T14:35:29.664Z,6.47
2019-05-07T14:37:38.776Z,6.72
2019-05-07T14:39:42.517Z,6.50
2019-05-07T14:41:46.219Z,8.80
2019-05-07T14:43:54.249Z,6.80
2019-05-07T14:45:56.430Z,7.70
2019-05-07T14:47:58.629Z,7.97
2019-05-07T14:50:02.082Z,7.45
2019-05-07T14:52:04.512Z,7.47
2019-05-07T14:54:06.703Z,7.65
2019-05-07T14:56:11.858Z,7.50
2019-05-07T14:58:14.123Z,7.37
2019-05-07T15:00:16.437Z,8.23
2019-05-07T15:02:18.777Z,6.72
2019-05-07T15:04:22.142Z,7.03
2019-05-07T15:06:25.045Z,7.78
2019-05-07T15:08:27.219Z,7.50
2019-05-07T15:10:29.325Z,7.65
2019-05-07T15:12:33.035Z,8.10
2019-05-07T15:14:36.773Z,7.37
2019-05-07T15:18:52.978Z,7.40
2019-05-07T15:20:55.341Z,6.55
2019-05-07T15:23:05.228Z,7.12
2019-05-07T15:25:09.094Z,7.80
2019-05-07T15:27:12.170Z,7.47
2019-05-07T15:29:14.343Z,7.42
2019-05-07T15:31:19.158Z,7.20
2019-05-07T15:33:21.804Z,8.53
2019-05-07T15:35:23.891Z,7.55
2019-05-07T15:37:26.057Z,8.13
2019-05-07T15:39:28.445Z,7.67
2019-05-07T15:41:32.101Z,7.67
2019-05-07T15:43:34.438Z,7.60
2019-05-07T15:45:36.692Z,7.67
2019-05-07T15:47:42.462Z,8.10
2019-05-07T15:49:44.651Z,8.35
2019-05-07T15:51:46.829Z,8.35
2019-05-07T15:53:53.701Z,8.80
2019-05-07T15:55:57.152Z,8.35
2019-05-07T15:57:59.703Z,8.63
2019-05-07T16:02:27.966Z,17.37
2019-05-07T16:04:32.738Z,17.70
2019-05-07T16:06:42.612Z,9.23
2019-05-07T16:08:52.972Z,9.20
2019-05-07T16:10:55.176Z,8.60
2019-05-07T16:12:57.387Z,8.65
2019-05-07T16:14:59.461Z,10.28
2019-05-07T16:17:08.632Z,8.68
2019-05-07T16:19:14.194Z,7.72
2019-05-07T16:21:17.678Z,9.58
2019-05-07T16:23:21.935Z,9.18
2019-05-07T16:25:23.893Z,8.60
2019-05-07T16:27:26.294Z,8.25
2019-05-07T16:29:28.614Z,8.65
2019-05-07T16:31:32.994Z,9.50
2019-05-07T16:33:34.786Z,8.78
2019-05-07T16:37:39.163Z,9.00
2019-05-07T16:39:42.168Z,8.78
2019-05-07T16:41:44.557Z,8.83
2019-05-07T16:43:46.792Z,9.50
2019-05-07T16:45:48.945Z,8.63
2019-05-07T16:47:52.163Z,9.33
2019-05-07T16:49:54.532Z,8.58
2019-05-07T16:51:56.542Z,8.73
2019-05-07T16:54:00.871Z,10.25
2019-05-07T16:56:03.926Z,9.03
2019-05-07T16:58:12.502Z,9.28
2019-05-07T17:00:22.208Z,9.63
2019-05-07T17:02:27.979Z,9.78
2019-05-07T17:04:31.941Z,9.90
2019-05-07T17:06:34.158Z,9.60
2019-05-07T17:08:58.043Z,11.12
2019-05-07T17:11:00.213Z,9.15
2019-05-07T17:13:03.304Z,10.03
2019-05-07T17:15:07.073Z,10.00
2019-05-07T17:17:09.376Z,10.05
2019-05-07T17:19:12.753Z,9.93
2019-05-07T17:21:14.810Z,9.80
2019-05-07T17:23:17.095Z,9.93
2019-05-07T17:25:37.585Z,9.43
2019-05-07T17:27:40.132Z,9.53
2019-05-07T17:29:43.443Z,9.63
2019-05-07T17:31:45.568Z,10.05
2019-05-07T17:33:51.673Z,10.15
2019-05-07T17:35:55.766Z,9.93
2019-05-07T17:38:06.520Z,9.90
2019-05-07T17:40:03.243Z,10.23
2019-05-07T17:42:05.946Z,9.53
2019-05-07T17:44:11.778Z,10.08
2019-05-07T17:46:13.738Z,10.60
2019-05-07T17:50:22.728Z,10.03
2019-05-07T17:52:25.730Z,10.65
2019-05-07T17:54:28.260Z,10.88
2019-05-07T17:56:32.057Z,10.10
2019-05-07T17:58:34.239Z,11.43
2019-05-07T18:00:37.135Z,10.15
2019-05-07T18:02:59.029Z,10.15
2019-05-07T18:05:02.814Z,9.95
2019-05-07T18:07:07.991Z,9.50
2019-05-07T18:09:12.092Z,10.23
2019-05-07T18:11:20.468Z,9.48
2019-05-07T18:13:22.362Z,9.63
2019-05-07T18:15:24.735Z,10.00
2019-05-07T18:17:33.744Z,10.18
2019-05-07T18:19:36.121Z,20.20
2019-05-07T18:23:40.056Z,10.35
2019-05-07T18:25:42.985Z,9.90
2019-05-07T18:27:45.319Z,9.18
2019-05-07T18:29:48.109Z,10.13
2019-05-07T18:31:55.678Z,10.70
2019-05-07T18:33:58.888Z,10.03
2019-05-07T18:36:02.861Z,8.88
2019-05-07T18:38:06.809Z,9.70
2019-05-07T18:40:08.925Z,9.68
2019-05-07T18:42:12.675Z,9.10
2019-05-07T18:44:16.231Z,8.63
2019-05-07T18:46:18.495Z,9.05
2019-05-07T18:48:22.437Z,8.50
2019-05-07T18:50:24.940Z,9.03
2019-05-07T18:52:27.080Z,9.75
2019-05-07T18:54:31.572Z,9.73
2019-05-07T18:56:33.989Z,10.68
2019-05-07T18:58:36.279Z,10.78
2019-05-07T19:00:42.601Z,11.28
2019-05-07T19:02:44.944Z,11.75
2019-05-07T19:04:46.951Z,11.80
2019-05-07T19:06:49.025Z,11.45
2019-05-07T19:08:52.689Z,11.65
2019-05-07T19:10:55.079Z,11.90
2019-05-07T19:12:58.358Z,11.48
2019-05-07T19:15:02.885Z,11.45
2019-05-07T19:17:05.250Z,11.43
2019-05-07T19:19:07.438Z,11.88
2019-05-07T19:21:09.552Z,11.15
2019-05-07T19:23:11.680Z,11.05
2019-05-07T19:25:13.910Z,12.30
2019-05-07T19:27:16.342Z,11.78
2019-05-07T19:31:21.995Z,11.55
2019-05-07T19:33:27.135Z,11.40
2019-05-07T19:35:28.942Z,12.70
2019-05-07T19:37:31.909Z,11.60
2019-05-07T19:39:34.442Z,12.23
2019-05-07T19:41:36.501Z,12.10
2019-05-07T19:43:38.720Z,11.65
2019-05-07T19:45:41.852Z,12.07
2019-05-07T19:47:44.125Z,12.07
2019-05-07T19:49:46.327Z,12.23
2019-05-07T19:51:48.657Z,12.05
2019-05-07T19:53:52.575Z,13.03
2019-05-07T19:56:16.538Z,12.58
2019-05-07T19:58:19.202Z,12.33
2019-05-07T20:00:23.097Z,12.05
2019-05-07T20:02:29.594Z,13.48
2019-05-07T20:04:32.273Z,12.93
2019-05-07T20:06:34.336Z,13.38
2019-05-07T20:08:36.953Z,13.05
2019-05-07T20:10:46.591Z,12.70
2019-05-07T20:12:48.815Z,12.43
2019-05-07T20:14:51.712Z,12.78
2019-05-07T20:16:54.267Z,13.83
2019-05-07T20:18:56.952Z,12.65
2019-05-07T20:23:02.538Z,13.75
2019-05-07T20:25:18.553Z,13.10
2019-05-07T20:27:12.597Z,12.73
2019-05-07T20:29:15.281Z,12.75
2019-05-07T20:31:17.665Z,12.88
2019-05-07T20:33:21.956Z,12.73
2019-05-07T20:35:25.564Z,12.78
2019-05-07T20:37:27.735Z,12.58
2019-05-07T20:39:32.110Z,13.00
2019-05-07T20:41:34.675Z,11.33
2019-05-07T20:43:37.078Z,14.55
2019-05-07T20:45:42.661Z,13.88
2019-05-07T20:47:45.099Z,13.75
2019-05-07T20:49:47.168Z,14.03
2019-05-07T20:51:49.291Z,13.75
2019-05-07T20:54:10.002Z,13.55
2019-05-07T20:56:12.963Z,12.88
2019-05-07T20:58:15.142Z,13.95
2019-05-07T21:00:23.836Z,13.55
2019-05-07T21:02:25.962Z,14.10
2019-05-07T21:04:28.242Z,13.83
2019-05-07T21:06:32.283Z,13.88
2019-05-07T21:08:34.343Z,14.05
2019-05-07T21:10:36.420Z,14.78
2019-05-07T21:12:38.691Z,14.35
2019-05-07T21:14:41.779Z,14.15
2019-05-07T21:16:43.986Z,14.25
2019-05-07T21:18:46.022Z,14.03
2019-05-07T21:20:48.280Z,14.05
2019-05-07T21:24:53.986Z,13.95
2019-05-07T21:26:56.483Z,15.63
2019-05-07T21:28:58.532Z,13.83
2019-05-07T21:31:02.601Z,15.60
2019-05-07T21:33:04.899Z,14.75
2019-05-07T21:37:08.767Z,14.23
2019-05-07T21:39:12.991Z,15.80
2019-05-07T21:41:15.008Z,14.45
2019-05-07T21:43:17.143Z,14.78
2019-05-07T21:45:23.645Z,14.50
2019-05-07T21:47:23.801Z,14.80
2019-05-07T21:49:25.923Z,14.50
2019-05-07T21:52:13.995Z,14.78
2019-05-07T21:56:38.315Z,14.60
2019-05-07T21:58:44.323Z,14.83
2019-05-07T22:01:07.703Z,14.78
2019-05-07T22:03:14.159Z,13.80
2019-05-07T22:05:17.365Z,14.05
2019-05-07T22:07:19.425Z,13.95
2019-05-07T22:09:22.311Z,14.55
2019-05-07T22:11:24.787Z,14.85
2019-05-07T22:13:28.371Z,13.83
2019-05-07T22:15:31.918Z,15.43
2019-05-07T22:17:34.348Z,14.13
2019-05-07T22:19:36.397Z,13.32
2019-05-07T22:21:38.443Z,14.43
2019-05-07T22:23:42.714Z,14.73
2019-05-07T22:25:44.976Z,15.10
2019-05-07T22:29:49.591Z,13.88
2019-05-07T22:32:11.881Z,13.85
2019-05-07T22:34:33.723Z,14.15
2019-05-07T22:36:37.857Z,13.58
2019-05-07T22:38:58.963Z,14.35
2019-05-07T22:41:03.069Z,14.18
2019-05-07T22:43:05.753Z,13.90
2019-05-07T22:45:08.407Z,13.80
2019-05-07T22:47:19.380Z,13.85
2019-05-07T22:49:23.032Z,14.35
2019-05-07T22:51:25.369Z,13.32
2019-05-07T22:53:27.392Z,14.00
2019-05-07T22:55:29.897Z,13.58
2019-05-07T22:57:38.353Z,14.10
2019-05-07T22:59:40.356Z,13.68
2019-05-07T23:01:42.729Z,13.10
2019-05-07T23:03:44.741Z,13.55
2019-05-07T23:05:46.803Z,13.50
2019-05-07T23:07:49.218Z,13.15
2019-05-07T23:11:54.990Z,13.03
2019-05-07T23:15:59.023Z,12.50
2019-05-07T23:18:04.151Z,12.60
2019-05-07T23:20:05.587Z,13.35
2019-05-07T23:22:08.570Z,12.45
2019-05-07T23:24:10.628Z,11.95
2019-05-07T23:26:14.727Z,12.13
2019-05-07T23:28:17.105Z,13.03
2019-05-07T23:30:22.245Z,13.48
2019-05-07T23:32:24.517Z,12.93
2019-05-07T23:34:26.506Z,12.20
2019-05-07T23:36:28.667Z,12.35
2019-05-07T23:38:31.926Z,11.90
2019-05-07T23:41:27.399Z,12.80
2019-05-07T23:43:28.833Z,11.93
2019-05-07T23:45:42.818Z,12.25
2019-05-07T23:50:19.770Z,11.35
2019-05-07T23:52:22.563Z,12.03
2019-05-07T23:54:24.687Z,11.60
2019-05-07T23:56:27.027Z,10.75
2019-05-07T23:58:29.391Z,11.53
